sensor_id;sensor_type;location;lat;lon;timestamp;P1;durP1;ratioP1;P2;durP2;ratioP2
71814;SDS011;59659;41.520;23.794;2023-11-22T14:31:04;21.23;;;9.63;;
71814;SDS011;59659;41.520;23.794;2023-11-22T14:32:18;16.38;;;9.25;;
71814;SDS011;59659;41.520;23.794;2023-11-22T14:33:30;15.15;;;9.90;;
71814;SDS011;59659;41.520;23.794;2023-11-22T14:34:43;19.02;;;10.40;;
71814;SDS011;59659;41.520;23.794;2023-11-22T14:35:55;18.40;;;10.30;;
71814;SDS011;59659;41.520;23.794;2023-11-22T14:37:07;18.02;;;11.15;;
71814;SDS011;59659;41.520;23.794;2023-11-22T14:38:18;17.55;;;9.52;;
71814;SDS011;59659;41.520;23.794;2023-11-22T14:39:33;18.50;;;10.32;;
71814;SDS011;59659;41.520;23.794;2023-11-22T14:40:45;17.25;;;10.50;;
71814;SDS011;59659;41.520;23.794;2023-11-22T14:41:57;19.38;;;9.60;;
71814;SDS011;59659;41.520;23.794;2023-11-22T14:43:09;16.33;;;9.93;;
71814;SDS011;59659;41.520;23.794;2023-11-22T14:44:21;17.45;;;9.77;;
71814;SDS011;59659;41.520;23.794;2023-11-22T14:45:33;18.98;;;10.65;;
71814;SDS011;59659;41.520;23.794;2023-11-22T14:46:44;18.77;;;10.02;;
71814;SDS011;59659;41.520;23.794;2023-11-22T14:47:56;20.52;;;10.60;;
71814;SDS011;59659;41.520;23.794;2023-11-22T14:49:08;17.10;;;9.85;;
71814;SDS011;59659;41.520;23.794;2023-11-22T14:50:20;23.45;;;11.32;;
71814;SDS011;59659;41.520;23.794;2023-11-22T14:51:32;17.80;;;9.10;;
71814;SDS011;59659;41.520;23.794;2023-11-22T14:52:45;20.55;;;11.15;;
71814;SDS011;59659;41.520;23.794;2023-11-22T14:53:58;22.20;;;11.90;;
71814;SDS011;59659;41.520;23.794;2023-11-22T14:55:10;28.27;;;13.63;;
71814;SDS011;59659;41.520;23.794;2023-11-22T14:56:24;22.48;;;11.38;;
71814;SDS011;59659;41.520;23.794;2023-11-22T14:57:35;21.02;;;11.27;;
71814;SDS011;59659;41.520;23.794;2023-11-22T14:58:48;20.77;;;10.70;;
71814;SDS011;59659;41.520;23.794;2023-11-22T15:00:05;20.73;;;9.80;;
71814;SDS011;59659;41.520;23.794;2023-11-22T15:01:21;19.08;;;9.30;;
71814;SDS011;59659;41.520;23.794;2023-11-22T15:02:33;18.13;;;10.10;;
71814;SDS011;59659;41.520;23.794;2023-11-22T15:03:47;18.05;;;9.20;;
71814;SDS011;59659;41.520;23.794;2023-11-22T15:05:00;18.20;;;10.20;;
71814;SDS011;59659;41.520;23.794;2023-11-22T15:06:12;20.50;;;11.23;;
71814;SDS011;59659;41.520;23.794;2023-11-22T15:07:24;26.50;;;14.05;;
71814;SDS011;59659;41.520;23.794;2023-11-22T15:08:36;41.58;;;17.85;;
71814;SDS011;59659;41.520;23.794;2023-11-22T15:09:49;47.95;;;21.70;;
71814;SDS011;59659;41.520;23.794;2023-11-22T15:11:00;48.67;;;19.58;;
71814;SDS011;59659;41.520;23.794;2023-11-22T15:12:12;44.17;;;19.05;;
71814;SDS011;59659;41.520;23.794;2023-11-22T15:13:24;41.45;;;19.30;;
71814;SDS011;59659;41.520;23.794;2023-11-22T15:14:36;46.10;;;20.33;;
71814;SDS011;59659;41.520;23.794;2023-11-22T15:15:48;51.13;;;21.83;;
71814;SDS011;59659;41.520;23.794;2023-11-22T15:17:00;56.00;;;23.40;;
71814;SDS011;59659;41.520;23.794;2023-11-22T15:18:15;50.08;;;20.55;;
71814;SDS011;59659;41.520;23.794;2023-11-22T15:19:27;44.53;;;19.42;;
71814;SDS011;59659;41.520;23.794;2023-11-22T15:20:39;36.95;;;17.20;;
71814;SDS011;59659;41.520;23.794;2023-11-22T15:21:51;37.75;;;17.10;;
71814;SDS011;59659;41.520;23.794;2023-11-22T15:23:06;39.13;;;17.17;;
71814;SDS011;59659;41.520;23.794;2023-11-22T15:24:22;24.50;;;11.85;;
71814;SDS011;59659;41.520;23.794;2023-11-22T15:25:34;28.65;;;12.15;;
71814;SDS011;59659;41.520;23.794;2023-11-22T15:26:45;24.23;;;11.73;;
71814;SDS011;59659;41.520;23.794;2023-11-22T15:27:58;21.92;;;11.68;;
71814;SDS011;59659;41.520;23.794;2023-11-22T15:29:11;35.45;;;16.48;;
71814;SDS011;59659;41.520;23.794;2023-11-22T15:30:23;35.25;;;16.90;;
71814;SDS011;59659;41.520;23.794;2023-11-22T15:31:35;39.63;;;18.10;;
71814;SDS011;59659;41.520;23.794;2023-11-22T15:32:46;55.58;;;22.48;;
71814;SDS011;59659;41.520;23.794;2023-11-22T15:33:59;52.08;;;22.63;;
71814;SDS011;59659;41.520;23.794;2023-11-22T15:35:11;53.38;;;21.75;;
71814;SDS011;59659;41.520;23.794;2023-11-22T15:36:23;52.20;;;21.27;;
71814;SDS011;59659;41.520;23.794;2023-11-22T15:37:34;41.83;;;17.33;;
71814;SDS011;59659;41.520;23.794;2023-11-22T15:38:46;46.10;;;20.05;;
71814;SDS011;59659;41.520;23.794;2023-11-22T15:39:58;59.58;;;22.95;;
71814;SDS011;59659;41.520;23.794;2023-11-22T15:41:10;49.00;;;20.70;;
71814;SDS011;59659;41.520;23.794;2023-11-22T15:42:27;38.60;;;17.02;;
71814;SDS011;59659;41.520;23.794;2023-11-22T15:43:39;35.55;;;15.27;;
71814;SDS011;59659;41.520;23.794;2023-11-22T15:44:51;42.92;;;16.58;;
71814;SDS011;59659;41.520;23.794;2023-11-22T15:46:03;28.42;;;13.45;;
71814;SDS011;59659;41.520;23.794;2023-11-22T15:47:15;33.40;;;12.95;;
71814;SDS011;59659;41.520;23.794;2023-11-22T15:48:27;32.67;;;13.30;;
71814;SDS011;59659;41.520;23.794;2023-11-22T15:49:39;27.85;;;12.07;;
71814;SDS011;59659;41.520;23.794;2023-11-22T15:50:51;19.38;;;11.20;;
71814;SDS011;59659;41.520;23.794;2023-11-22T15:52:03;18.83;;;10.55;;
71814;SDS011;59659;41.520;23.794;2023-11-22T15:53:14;23.52;;;11.88;;
71814;SDS011;59659;41.520;23.794;2023-11-22T15:54:27;26.25;;;12.35;;
71814;SDS011;59659;41.520;23.794;2023-11-22T15:55:41;26.35;;;11.38;;
71814;SDS011;59659;41.520;23.794;2023-11-22T15:56:53;26.35;;;11.40;;
71814;SDS011;59659;41.520;23.794;2023-11-22T15:58:04;26.00;;;9.75;;
71814;SDS011;59659;41.520;23.794;2023-11-22T15:59:16;15.82;;;7.95;;
71814;SDS011;59659;41.520;23.794;2023-11-22T16:00:28;15.15;;;6.93;;
71814;SDS011;59659;41.520;23.794;2023-11-22T16:01:39;11.98;;;7.57;;
71814;SDS011;59659;41.520;23.794;2023-11-22T16:02:51;15.55;;;8.25;;
71814;SDS011;59659;41.520;23.794;2023-11-22T16:04:03;25.65;;;12.25;;
71814;SDS011;59659;41.520;23.794;2023-11-22T16:05:16;38.78;;;16.65;;
71814;SDS011;59659;41.520;23.794;2023-11-22T16:06:29;39.83;;;18.67;;
71814;SDS011;59659;41.520;23.794;2023-11-22T16:07:41;34.78;;;17.35;;
71814;SDS011;59659;41.520;23.794;2023-11-22T16:08:53;76.85;;;30.40;;
71814;SDS011;59659;41.520;23.794;2023-11-22T16:10:05;80.85;;;33.03;;
71814;SDS011;59659;41.520;23.794;2023-11-22T16:11:19;73.25;;;29.73;;
71814;SDS011;59659;41.520;23.794;2023-11-22T16:12:31;69.78;;;30.02;;
71814;SDS011;59659;41.520;23.794;2023-11-22T16:13:43;72.70;;;29.63;;
71814;SDS011;59659;41.520;23.794;2023-11-22T16:14:59;68.20;;;30.10;;
71814;SDS011;59659;41.520;23.794;2023-11-22T16:16:12;68.90;;;28.25;;
71814;SDS011;59659;41.520;23.794;2023-11-22T16:17:23;60.22;;;29.67;;
71814;SDS011;59659;41.520;23.794;2023-11-22T16:18:35;59.65;;;26.33;;
71814;SDS011;59659;41.520;23.794;2023-11-22T16:19:50;59.10;;;28.77;;
71814;SDS011;59659;41.520;23.794;2023-11-22T16:21:07;55.97;;;27.20;;
71814;SDS011;59659;41.520;23.794;2023-11-22T16:22:26;55.92;;;28.23;;
71814;SDS011;59659;41.520;23.794;2023-11-22T16:23:37;71.18;;;28.98;;
71814;SDS011;59659;41.520;23.794;2023-11-22T16:24:49;56.58;;;27.40;;
71814;SDS011;59659;41.520;23.794;2023-11-22T16:26:01;61.65;;;28.05;;
71814;SDS011;59659;41.520;23.794;2023-11-22T16:27:13;54.95;;;25.48;;
71814;SDS011;59659;41.520;23.794;2023-11-22T16:28:24;59.83;;;25.95;;
71814;SDS011;59659;41.520;23.794;2023-11-22T16:29:36;41.50;;;20.95;;
71814;SDS011;59659;41.520;23.794;2023-11-22T16:30:48;54.92;;;26.60;;
71814;SDS011;59659;41.520;23.794;2023-11-22T16:32:00;57.75;;;26.20;;
71814;SDS011;59659;41.520;23.794;2023-11-22T16:33:11;44.92;;;22.40;;
71814;SDS011;59659;41.520;23.794;2023-11-22T16:34:26;53.42;;;24.27;;
71814;SDS011;59659;41.520;23.794;2023-11-22T16:35:39;49.85;;;24.35;;
71814;SDS011;59659;41.520;23.794;2023-11-22T16:36:51;48.50;;;24.02;;
71814;SDS011;59659;41.520;23.794;2023-11-22T16:38:03;48.50;;;21.70;;
71814;SDS011;59659;41.520;23.794;2023-11-22T16:39:15;36.88;;;17.50;;
71814;SDS011;59659;41.520;23.794;2023-11-22T16:40:40;39.00;;;18.10;;
71814;SDS011;59659;41.520;23.794;2023-11-22T16:41:52;30.83;;;16.15;;
71814;SDS011;59659;41.520;23.794;2023-11-22T16:43:04;34.47;;;15.23;;
71814;SDS011;59659;41.520;23.794;2023-11-22T16:44:18;29.40;;;15.07;;
71814;SDS011;59659;41.520;23.794;2023-11-22T16:45:33;43.35;;;20.58;;
71814;SDS011;59659;41.520;23.794;2023-11-22T16:46:45;35.65;;;16.85;;
71814;SDS011;59659;41.520;23.794;2023-11-22T16:48:00;36.63;;;17.00;;
71814;SDS011;59659;41.520;23.794;2023-11-22T16:49:12;39.05;;;16.63;;
71814;SDS011;59659;41.520;23.794;2023-11-22T16:50:26;42.80;;;17.83;;
71814;SDS011;59659;41.520;23.794;2023-11-22T16:51:39;45.20;;;18.92;;
71814;SDS011;59659;41.520;23.794;2023-11-22T16:52:52;48.33;;;18.88;;
71814;SDS011;59659;41.520;23.794;2023-11-22T16:54:04;37.42;;;18.17;;
71814;SDS011;59659;41.520;23.794;2023-11-22T16:55:16;40.22;;;17.05;;
71814;SDS011;59659;41.520;23.794;2023-11-22T16:56:28;33.90;;;16.60;;
71814;SDS011;59659;41.520;23.794;2023-11-22T16:57:39;45.42;;;16.98;;
71814;SDS011;59659;41.520;23.794;2023-11-22T16:58:52;33.05;;;16.48;;
71814;SDS011;59659;41.520;23.794;2023-11-22T17:00:05;35.83;;;14.85;;
71814;SDS011;59659;41.520;23.794;2023-11-22T17:01:20;33.03;;;14.88;;
71814;SDS011;59659;41.520;23.794;2023-11-22T17:02:32;33.58;;;15.48;;
71814;SDS011;59659;41.520;23.794;2023-11-22T17:03:44;28.08;;;14.18;;
71814;SDS011;59659;41.520;23.794;2023-11-22T17:04:56;26.70;;;14.57;;
71814;SDS011;59659;41.520;23.794;2023-11-22T17:06:08;32.88;;;14.55;;
71814;SDS011;59659;41.520;23.794;2023-11-22T17:07:20;30.08;;;13.85;;
71814;SDS011;59659;41.520;23.794;2023-11-22T17:08:32;26.20;;;12.70;;
71814;SDS011;59659;41.520;23.794;2023-11-22T17:09:43;21.58;;;11.77;;
71814;SDS011;59659;41.520;23.794;2023-11-22T17:10:55;24.80;;;12.30;;
71814;SDS011;59659;41.520;23.794;2023-11-22T17:12:07;42.88;;;17.48;;
71814;SDS011;59659;41.520;23.794;2023-11-22T17:13:19;42.85;;;18.75;;
71814;SDS011;59659;41.520;23.794;2023-11-22T17:14:30;63.42;;;25.70;;
71814;SDS011;59659;41.520;23.794;2023-11-22T17:15:42;45.05;;;18.00;;
71814;SDS011;59659;41.520;23.794;2023-11-22T17:16:56;24.55;;;13.52;;
71814;SDS011;59659;41.520;23.794;2023-11-22T17:18:08;32.05;;;14.70;;
71814;SDS011;59659;41.520;23.794;2023-11-22T17:19:21;24.33;;;12.35;;
71814;SDS011;59659;41.520;23.794;2023-11-22T17:20:32;25.55;;;12.15;;
71814;SDS011;59659;41.520;23.794;2023-11-22T17:21:44;27.10;;;13.90;;
71814;SDS011;59659;41.520;23.794;2023-11-22T17:22:56;36.95;;;17.70;;
71814;SDS011;59659;41.520;23.794;2023-11-22T17:24:08;73.90;;;29.60;;
71814;SDS011;59659;41.520;23.794;2023-11-22T17:25:21;58.83;;;24.33;;
71814;SDS011;59659;41.520;23.794;2023-11-22T17:26:33;46.25;;;20.08;;
71814;SDS011;59659;41.520;23.794;2023-11-22T17:27:47;49.05;;;21.33;;
71814;SDS011;59659;41.520;23.794;2023-11-22T17:29:05;45.83;;;21.48;;
71814;SDS011;59659;41.520;23.794;2023-11-22T17:30:17;40.60;;;16.80;;
71814;SDS011;59659;41.520;23.794;2023-11-22T17:31:29;30.83;;;15.07;;
71814;SDS011;59659;41.520;23.794;2023-11-22T17:32:40;24.85;;;12.85;;
71814;SDS011;59659;41.520;23.794;2023-11-22T17:33:53;31.95;;;14.00;;
71814;SDS011;59659;41.520;23.794;2023-11-22T17:35:05;42.42;;;17.90;;
71814;SDS011;59659;41.520;23.794;2023-11-22T17:36:17;34.75;;;15.38;;
71814;SDS011;59659;41.520;23.794;2023-11-22T17:37:29;30.88;;;14.48;;
71814;SDS011;59659;41.520;23.794;2023-11-22T17:38:40;29.67;;;12.88;;
71814;SDS011;59659;41.520;23.794;2023-11-22T17:39:52;31.75;;;13.32;;
71814;SDS011;59659;41.520;23.794;2023-11-22T17:41:04;29.20;;;12.60;;
71814;SDS011;59659;41.520;23.794;2023-11-22T17:42:16;38.22;;;19.08;;
71814;SDS011;59659;41.520;23.794;2023-11-22T17:43:28;60.70;;;23.83;;
71814;SDS011;59659;41.520;23.794;2023-11-22T17:44:40;58.22;;;23.00;;
71814;SDS011;59659;41.520;23.794;2023-11-22T17:45:52;59.08;;;23.80;;
71814;SDS011;59659;41.520;23.794;2023-11-22T17:47:03;46.90;;;19.35;;
71814;SDS011;59659;41.520;23.794;2023-11-22T17:48:17;48.45;;;20.73;;
71814;SDS011;59659;41.520;23.794;2023-11-22T17:49:29;48.58;;;19.63;;
71814;SDS011;59659;41.520;23.794;2023-11-22T17:50:41;33.92;;;14.75;;
71814;SDS011;59659;41.520;23.794;2023-11-22T17:51:56;21.83;;;11.77;;
71814;SDS011;59659;41.520;23.794;2023-11-22T17:53:07;27.88;;;12.15;;
71814;SDS011;59659;41.520;23.794;2023-11-22T17:54:20;21.70;;;11.05;;
71814;SDS011;59659;41.520;23.794;2023-11-22T17:55:33;16.60;;;9.55;;
71814;SDS011;59659;41.520;23.794;2023-11-22T17:56:44;19.90;;;9.95;;
71814;SDS011;59659;41.520;23.794;2023-11-22T17:57:56;16.40;;;9.10;;
71814;SDS011;59659;41.520;23.794;2023-11-22T17:59:08;16.90;;;9.80;;
71814;SDS011;59659;41.520;23.794;2023-11-22T18:00:21;12.60;;;7.05;;
71814;SDS011;59659;41.520;23.794;2023-11-22T18:01:33;13.77;;;7.95;;
71814;SDS011;59659;41.520;23.794;2023-11-22T18:02:45;12.45;;;7.95;;
71814;SDS011;59659;41.520;23.794;2023-11-22T18:03:58;18.33;;;7.90;;
71814;SDS011;59659;41.520;23.794;2023-11-22T18:05:10;13.85;;;7.80;;
71814;SDS011;59659;41.520;23.794;2023-11-22T18:06:21;19.75;;;9.15;;
71814;SDS011;59659;41.520;23.794;2023-11-22T18:07:33;27.90;;;14.10;;
71814;SDS011;59659;41.520;23.794;2023-11-22T18:08:45;28.45;;;13.98;;
71814;SDS011;59659;41.520;23.794;2023-11-22T18:09:57;23.02;;;10.38;;
71814;SDS011;59659;41.520;23.794;2023-11-22T18:11:08;18.63;;;9.80;;
71814;SDS011;59659;41.520;23.794;2023-11-22T18:12:21;14.18;;;7.63;;
71814;SDS011;59659;41.520;23.794;2023-11-22T18:13:32;11.50;;;7.18;;
71814;SDS011;59659;41.520;23.794;2023-11-22T18:14:44;11.10;;;6.70;;
71814;SDS011;59659;41.520;23.794;2023-11-22T18:15:57;11.85;;;7.38;;
71814;SDS011;59659;41.520;23.794;2023-11-22T18:17:08;17.10;;;8.27;;
71814;SDS011;59659;41.520;23.794;2023-11-22T18:18:21;13.85;;;7.93;;
71814;SDS011;59659;41.520;23.794;2023-11-22T18:19:32;14.75;;;8.00;;
71814;SDS011;59659;41.520;23.794;2023-11-22T18:20:44;14.93;;;8.63;;
71814;SDS011;59659;41.520;23.794;2023-11-22T18:21:56;15.85;;;8.70;;
71814;SDS011;59659;41.520;23.794;2023-11-22T18:23:09;16.80;;;9.40;;
71814;SDS011;59659;41.520;23.794;2023-11-22T18:24:21;21.50;;;9.68;;
71814;SDS011;59659;41.520;23.794;2023-11-22T18:25:33;16.58;;;8.68;;
71814;SDS011;59659;41.520;23.794;2023-11-22T18:26:45;17.17;;;9.63;;
71814;SDS011;59659;41.520;23.794;2023-11-22T18:27:57;20.90;;;10.15;;
71814;SDS011;59659;41.520;23.794;2023-11-22T18:29:09;18.23;;;10.57;;
71814;SDS011;59659;41.520;23.794;2023-11-22T18:30:22;24.02;;;9.20;;
71814;SDS011;59659;41.520;23.794;2023-11-22T18:31:34;18.63;;;9.10;;
71814;SDS011;59659;41.520;23.794;2023-11-22T18:32:46;16.23;;;8.93;;
71814;SDS011;59659;41.520;23.794;2023-11-22T18:33:57;15.32;;;7.88;;
71814;SDS011;59659;41.520;23.794;2023-11-22T18:35:09;14.70;;;7.80;;
71814;SDS011;59659;41.520;23.794;2023-11-22T18:36:21;19.73;;;8.38;;
71814;SDS011;59659;41.520;23.794;2023-11-22T18:37:33;14.93;;;9.65;;
71814;SDS011;59659;41.520;23.794;2023-11-22T18:38:45;14.23;;;8.38;;
71814;SDS011;59659;41.520;23.794;2023-11-22T18:39:58;17.95;;;8.18;;
71814;SDS011;59659;41.520;23.794;2023-11-22T18:41:10;13.57;;;7.72;;
71814;SDS011;59659;41.520;23.794;2023-11-22T18:42:22;14.52;;;7.28;;
71814;SDS011;59659;41.520;23.794;2023-11-22T18:43:34;14.32;;;7.78;;
71814;SDS011;59659;41.520;23.794;2023-11-22T18:44:46;15.82;;;8.15;;
71814;SDS011;59659;41.520;23.794;2023-11-22T18:45:59;17.38;;;9.38;;
71814;SDS011;59659;41.520;23.794;2023-11-22T18:47:15;16.70;;;8.40;;
71814;SDS011;59659;41.520;23.794;2023-11-22T18:48:28;11.90;;;6.22;;
71814;SDS011;59659;41.520;23.794;2023-11-22T18:49:40;11.82;;;7.10;;
71814;SDS011;59659;41.520;23.794;2023-11-22T18:50:52;9.95;;;5.13;;
71814;SDS011;59659;41.520;23.794;2023-11-22T18:52:04;10.38;;;5.18;;
71814;SDS011;59659;41.520;23.794;2023-11-22T18:53:16;8.30;;;5.20;;
71814;SDS011;59659;41.520;23.794;2023-11-22T18:54:27;11.70;;;6.68;;
71814;SDS011;59659;41.520;23.794;2023-11-22T18:55:39;12.25;;;7.45;;
71814;SDS011;59659;41.520;23.794;2023-11-22T18:56:50;11.90;;;5.93;;
71814;SDS011;59659;41.520;23.794;2023-11-22T18:58:02;10.93;;;5.45;;
71814;SDS011;59659;41.520;23.794;2023-11-22T18:59:16;14.40;;;6.80;;
71814;SDS011;59659;41.520;23.794;2023-11-22T19:00:28;10.30;;;5.55;;
71814;SDS011;59659;41.520;23.794;2023-11-22T19:01:39;10.05;;;5.07;;
71814;SDS011;59659;41.520;23.794;2023-11-22T19:02:51;11.60;;;5.47;;
71814;SDS011;59659;41.520;23.794;2023-11-22T19:04:04;11.13;;;6.38;;
71814;SDS011;59659;41.520;23.794;2023-11-22T19:05:16;15.95;;;5.70;;
71814;SDS011;59659;41.520;23.794;2023-11-22T19:08:09;10.50;;;5.50;;
71814;SDS011;59659;41.520;23.794;2023-11-22T19:09:21;11.90;;;5.88;;
71814;SDS011;59659;41.520;23.794;2023-11-22T19:10:32;15.80;;;7.65;;
71814;SDS011;59659;41.520;23.794;2023-11-22T19:11:44;15.88;;;9.68;;
71814;SDS011;59659;41.520;23.794;2023-11-22T19:15:06;18.05;;;8.68;;
71814;SDS011;59659;41.520;23.794;2023-11-22T19:18:26;12.65;;;7.38;;
71814;SDS011;59659;41.520;23.794;2023-11-22T19:19:40;11.25;;;6.55;;
71814;SDS011;59659;41.520;23.794;2023-11-22T19:20:56;14.10;;;7.15;;
71814;SDS011;59659;41.520;23.794;2023-11-22T19:22:17;17.90;;;6.45;;
71814;SDS011;59659;41.520;23.794;2023-11-22T19:23:30;12.85;;;6.63;;
71814;SDS011;59659;41.520;23.794;2023-11-22T19:24:42;15.38;;;6.85;;
71814;SDS011;59659;41.520;23.794;2023-11-22T19:25:53;13.98;;;7.03;;
71814;SDS011;59659;41.520;23.794;2023-11-22T19:27:11;11.65;;;6.75;;
71814;SDS011;59659;41.520;23.794;2023-11-22T19:28:22;15.52;;;7.55;;
71814;SDS011;59659;41.520;23.794;2023-11-22T19:29:37;12.65;;;7.47;;
71814;SDS011;59659;41.520;23.794;2023-11-22T19:30:49;19.00;;;10.65;;
71814;SDS011;59659;41.520;23.794;2023-11-22T19:32:01;15.80;;;8.93;;
71814;SDS011;59659;41.520;23.794;2023-11-22T19:33:13;19.23;;;8.88;;
71814;SDS011;59659;41.520;23.794;2023-11-22T19:34:25;16.05;;;9.38;;
71814;SDS011;59659;41.520;23.794;2023-11-22T19:35:37;19.95;;;9.90;;
71814;SDS011;59659;41.520;23.794;2023-11-22T19:36:48;16.60;;;8.65;;
71814;SDS011;59659;41.520;23.794;2023-11-22T19:38:02;16.25;;;8.90;;
71814;SDS011;59659;41.520;23.794;2023-11-22T19:39:16;17.73;;;8.52;;
71814;SDS011;59659;41.520;23.794;2023-11-22T19:40:27;18.55;;;8.73;;
71814;SDS011;59659;41.520;23.794;2023-11-22T19:41:40;18.77;;;8.60;;
71814;SDS011;59659;41.520;23.794;2023-11-22T19:42:52;14.38;;;8.70;;
71814;SDS011;59659;41.520;23.794;2023-11-22T19:44:04;13.38;;;7.47;;
71814;SDS011;59659;41.520;23.794;2023-11-22T19:45:16;27.13;;;8.55;;
71814;SDS011;59659;41.520;23.794;2023-11-22T19:46:27;15.73;;;8.02;;
71814;SDS011;59659;41.520;23.794;2023-11-22T19:47:39;13.75;;;8.55;;
71814;SDS011;59659;41.520;23.794;2023-11-22T19:48:52;13.00;;;8.35;;
71814;SDS011;59659;41.520;23.794;2023-11-22T19:50:05;16.10;;;7.93;;
71814;SDS011;59659;41.520;23.794;2023-11-22T19:51:26;14.23;;;8.05;;
71814;SDS011;59659;41.520;23.794;2023-11-22T19:52:38;16.60;;;8.68;;
71814;SDS011;59659;41.520;23.794;2023-11-22T19:53:52;14.05;;;8.05;;
71814;SDS011;59659;41.520;23.794;2023-11-22T19:55:15;13.82;;;7.30;;
71814;SDS011;59659;41.520;23.794;2023-11-22T19:56:41;14.35;;;7.80;;
71814;SDS011;59659;41.520;23.794;2023-11-22T19:57:53;10.65;;;6.13;;
71814;SDS011;59659;41.520;23.794;2023-11-22T19:59:15;9.80;;;5.97;;
71814;SDS011;59659;41.520;23.794;2023-11-22T20:00:28;11.10;;;7.05;;
71814;SDS011;59659;41.520;23.794;2023-11-22T20:01:49;16.65;;;7.82;;
71814;SDS011;59659;41.520;23.794;2023-11-22T20:03:04;15.93;;;8.70;;
71814;SDS011;59659;41.520;23.794;2023-11-22T20:04:24;14.85;;;8.88;;
71814;SDS011;59659;41.520;23.794;2023-11-22T20:05:38;9.10;;;6.35;;
71814;SDS011;59659;41.520;23.794;2023-11-22T20:06:55;12.63;;;7.57;;
71814;SDS011;59659;41.520;23.794;2023-11-22T20:08:09;13.05;;;7.40;;
71814;SDS011;59659;41.520;23.794;2023-11-22T20:09:23;17.58;;;7.82;;
71814;SDS011;59659;41.520;23.794;2023-11-22T20:10:35;13.23;;;6.75;;
71814;SDS011;59659;41.520;23.794;2023-11-22T20:11:46;10.05;;;6.50;;
71814;SDS011;59659;41.520;23.794;2023-11-22T20:12:58;12.32;;;6.88;;
71814;SDS011;59659;41.520;23.794;2023-11-22T20:14:10;12.07;;;6.88;;
71814;SDS011;59659;41.520;23.794;2023-11-22T20:15:21;11.93;;;7.43;;
71814;SDS011;59659;41.520;23.794;2023-11-22T20:16:33;11.32;;;6.53;;
71814;SDS011;59659;41.520;23.794;2023-11-22T20:17:45;13.45;;;6.90;;
71814;SDS011;59659;41.520;23.794;2023-11-22T20:18:56;11.10;;;6.35;;
71814;SDS011;59659;41.520;23.794;2023-11-22T20:20:08;9.40;;;5.97;;
71814;SDS011;59659;41.520;23.794;2023-11-22T20:21:24;11.18;;;5.47;;
71814;SDS011;59659;41.520;23.794;2023-11-22T20:22:35;9.65;;;6.10;;
71814;SDS011;59659;41.520;23.794;2023-11-22T20:23:50;18.67;;;6.50;;
71814;SDS011;59659;41.520;23.794;2023-11-22T20:25:02;11.68;;;6.25;;
71814;SDS011;59659;41.520;23.794;2023-11-22T20:26:14;7.65;;;5.00;;
71814;SDS011;59659;41.520;23.794;2023-11-22T20:27:26;7.97;;;5.20;;
71814;SDS011;59659;41.520;23.794;2023-11-22T20:28:41;8.65;;;5.05;;
71814;SDS011;59659;41.520;23.794;2023-11-22T20:29:52;9.10;;;5.60;;
71814;SDS011;59659;41.520;23.794;2023-11-22T20:31:04;8.02;;;4.97;;
71814;SDS011;59659;41.520;23.794;2023-11-22T20:32:16;9.20;;;5.18;;
71814;SDS011;59659;41.520;23.794;2023-11-22T20:33:27;7.18;;;4.40;;
71814;SDS011;59659;41.520;23.794;2023-11-22T20:34:39;7.63;;;4.55;;
71814;SDS011;59659;41.520;23.794;2023-11-22T20:35:51;10.13;;;5.53;;
71814;SDS011;59659;41.520;23.794;2023-11-22T20:37:02;9.77;;;5.35;;
71814;SDS011;59659;41.520;23.794;2023-11-22T20:38:14;10.32;;;6.00;;
71814;SDS011;59659;41.520;23.794;2023-11-22T20:39:26;10.73;;;6.28;;
71814;SDS011;59659;41.520;23.794;2023-11-22T20:40:39;10.27;;;5.75;;
71814;SDS011;59659;41.520;23.794;2023-11-22T20:41:51;19.48;;;9.73;;
71814;SDS011;59659;41.520;23.794;2023-11-22T20:43:04;13.10;;;6.53;;
71814;SDS011;59659;41.520;23.794;2023-11-22T20:44:16;21.95;;;10.32;;
71814;SDS011;59659;41.520;23.794;2023-11-22T20:45:27;32.67;;;14.70;;
71814;SDS011;59659;41.520;23.794;2023-11-22T20:46:39;38.85;;;18.15;;
71814;SDS011;59659;41.520;23.794;2023-11-22T20:47:51;34.75;;;15.98;;
71814;SDS011;59659;41.520;23.794;2023-11-22T20:49:02;35.60;;;17.35;;
71814;SDS011;59659;41.520;23.794;2023-11-22T20:50:14;36.20;;;16.60;;
71814;SDS011;59659;41.520;23.794;2023-11-22T20:51:26;34.42;;;17.23;;
71814;SDS011;59659;41.520;23.794;2023-11-22T20:52:38;34.28;;;15.57;;
71814;SDS011;59659;41.520;23.794;2023-11-22T20:53:50;37.42;;;18.63;;
71814;SDS011;59659;41.520;23.794;2023-11-22T20:55:01;65.93;;;24.30;;
71814;SDS011;59659;41.520;23.794;2023-11-22T20:56:17;76.43;;;28.42;;
71814;SDS011;59659;41.520;23.794;2023-11-22T20:57:28;53.53;;;23.08;;
71814;SDS011;59659;41.520;23.794;2023-11-22T20:58:40;61.45;;;21.80;;
71814;SDS011;59659;41.520;23.794;2023-11-22T20:59:52;52.00;;;20.73;;
71814;SDS011;59659;41.520;23.794;2023-11-22T21:01:04;39.50;;;17.88;;
71814;SDS011;59659;41.520;23.794;2023-11-22T21:02:15;40.13;;;16.80;;
71814;SDS011;59659;41.520;23.794;2023-11-22T21:03:27;58.78;;;21.35;;
71814;SDS011;59659;41.520;23.794;2023-11-22T21:04:39;36.60;;;17.98;;
71814;SDS011;59659;41.520;23.794;2023-11-22T21:05:51;40.35;;;17.85;;
71814;SDS011;59659;41.520;23.794;2023-11-22T21:07:03;37.72;;;16.67;;
71814;SDS011;59659;41.520;23.794;2023-11-22T21:08:16;42.92;;;17.98;;
71814;SDS011;59659;41.520;23.794;2023-11-22T21:09:38;34.55;;;16.42;;
71814;SDS011;59659;41.520;23.794;2023-11-22T21:10:50;40.10;;;16.95;;
71814;SDS011;59659;41.520;23.794;2023-11-22T21:12:02;36.58;;;16.75;;
71814;SDS011;59659;41.520;23.794;2023-11-22T21:13:13;43.97;;;17.92;;
71814;SDS011;59659;41.520;23.794;2023-11-22T21:14:26;43.35;;;18.75;;
71814;SDS011;59659;41.520;23.794;2023-11-22T21:15:44;56.08;;;20.80;;
71814;SDS011;59659;41.520;23.794;2023-11-22T21:16:57;57.28;;;18.83;;
71814;SDS011;59659;41.520;23.794;2023-11-22T21:18:10;73.95;;;22.23;;
71814;SDS011;59659;41.520;23.794;2023-11-22T21:19:22;94.10;;;25.92;;
71814;SDS011;59659;41.520;23.794;2023-11-22T21:20:33;155.02;;;28.67;;
71814;SDS011;59659;41.520;23.794;2023-11-22T21:21:45;68.22;;;23.38;;
71814;SDS011;59659;41.520;23.794;2023-11-22T21:22:57;114.75;;;24.83;;
71814;SDS011;59659;41.520;23.794;2023-11-22T21:24:09;182.93;;;29.48;;
71814;SDS011;59659;41.520;23.794;2023-11-22T21:25:20;109.32;;;23.98;;
71814;SDS011;59659;41.520;23.794;2023-11-22T21:26:32;142.52;;;28.55;;
71814;SDS011;59659;41.520;23.794;2023-11-22T21:27:44;123.45;;;22.85;;
71814;SDS011;59659;41.520;23.794;2023-11-22T21:28:56;97.38;;;20.85;;
71814;SDS011;59659;41.520;23.794;2023-11-22T21:30:08;105.90;;;22.65;;
71814;SDS011;59659;41.520;23.794;2023-11-22T21:31:21;158.77;;;23.33;;
71814;SDS011;59659;41.520;23.794;2023-11-22T21:32:33;132.00;;;26.75;;
71814;SDS011;59659;41.520;23.794;2023-11-22T21:33:45;73.78;;;20.77;;
71814;SDS011;59659;41.520;23.794;2023-11-22T21:34:57;102.00;;;20.95;;
71814;SDS011;59659;41.520;23.794;2023-11-22T21:36:10;88.40;;;19.70;;
71814;SDS011;59659;41.520;23.794;2023-11-22T21:37:21;69.30;;;21.55;;